createdAt,value
2017-11-24T00:01:03.321Z,91.80
2017-11-24T00:06:05.927Z,91.70
2017-11-24T00:08:33.437Z,91.70
2017-11-24T00:11:00.899Z,91.60
2017-11-24T00:13:28.431Z,91.60
2017-11-24T00:15:55.995Z,91.60
2017-11-24T00:18:24.260Z,91.70
2017-11-24T00:20:52.024Z,91.70
2017-11-24T00:23:19.508Z,91.70
2017-11-24T00:25:47.012Z,91.80
2017-11-24T00:28:14.908Z,91.80
2017-11-24T00:30:45.899Z,91.80
2017-11-24T00:33:13.695Z,91.80
2017-11-24T00:35:41.247Z,91.90
2017-11-24T00:38:08.738Z,92.00
2017-11-24T00:40:36.274Z,92.00
2017-11-24T00:43:04.105Z,92.00
2017-11-24T00:45:31.593Z,92.20
2017-11-24T00:47:59.135Z,92.30
2017-11-24T00:50:26.622Z,92.30
2017-11-24T00:52:54.443Z,92.30
2017-11-24T00:55:26.350Z,92.40
2017-11-24T00:57:54.792Z,92.40
2017-11-24T01:00:22.324Z,92.50
2017-11-24T01:02:49.826Z,92.40
2017-11-24T01:05:17.662Z,92.40
2017-11-24T01:07:45.260Z,92.30
2017-11-24T01:10:16.294Z,92.30
2017-11-24T01:12:46.615Z,92.50
2017-11-24T01:15:14.470Z,92.40
2017-11-24T01:17:42.006Z,92.50
2017-11-24T01:20:09.501Z,92.40
2017-11-24T01:22:37.009Z,92.50
2017-11-24T01:25:05.141Z,92.50
2017-11-24T01:27:32.705Z,92.50
2017-11-24T01:30:00.526Z,92.60
2017-11-24T01:32:28.065Z,92.60
2017-11-24T01:34:55.531Z,92.80
2017-11-24T01:37:25.610Z,92.80
2017-11-24T01:39:57.070Z,92.70
2017-11-24T01:42:25.270Z,92.90
2017-11-24T01:44:56.883Z,92.90
2017-11-24T01:47:25.133Z,93.00
2017-11-24T01:49:56.080Z,93.00
2017-11-24T01:52:23.663Z,93.00
2017-11-24T01:57:26.449Z,93.10
2017-11-24T01:59:53.953Z,93.20
2017-11-24T02:02:22.229Z,93.30
2017-11-24T02:04:49.683Z,93.20
2017-11-24T02:07:17.192Z,93.20
2017-11-24T02:09:44.664Z,93.20
2017-11-24T02:12:13.006Z,93.20
2017-11-24T02:14:40.556Z,93.20
2017-11-24T02:17:08.020Z,93.20
2017-11-24T02:19:35.498Z,93.30
2017-11-24T02:22:05.489Z,93.30
2017-11-24T02:24:34.550Z,93.10
2017-11-24T02:27:05.868Z,93.00
2017-11-24T02:29:33.456Z,92.90
2017-11-24T02:34:33.106Z,92.80
2017-11-24T02:37:04.707Z,93.00
2017-11-24T02:39:36.718Z,92.70
2017-11-24T02:42:05.113Z,92.60
2017-11-24T02:47:05.422Z,92.40
2017-11-24T02:49:33.148Z,92.60
2017-11-24T02:52:01.858Z,92.90
2017-11-24T02:54:29.321Z,92.50
2017-11-24T02:56:56.817Z,92.70
2017-11-24T02:59:25.134Z,92.70
2017-11-24T03:01:55.137Z,93.00
2017-11-24T03:04:22.765Z,92.90
2017-11-24T03:06:50.227Z,93.00
2017-11-24T03:09:17.744Z,93.00
2017-11-24T03:11:45.246Z,93.00
2017-11-24T03:14:12.797Z,92.90
2017-11-24T03:19:15.526Z,92.90
2017-11-24T03:21:46.521Z,92.90
2017-11-24T03:24:16.252Z,93.00
2017-11-24T03:26:44.015Z,93.10
2017-11-24T03:31:45.191Z,93.30
2017-11-24T03:34:12.873Z,93.60
2017-11-24T03:39:12.126Z,93.30
2017-11-24T03:41:39.665Z,93.40
2017-11-24T03:44:07.209Z,93.50
2017-11-24T03:46:35.469Z,93.60
2017-11-24T03:49:02.955Z,93.60
2017-11-24T03:54:06.425Z,93.60
2017-11-24T03:56:34.273Z,93.70
2017-11-24T03:59:02.534Z,93.70
2017-11-24T04:04:03.068Z,93.70
2017-11-24T04:09:02.556Z,93.30
2017-11-24T04:14:02.583Z,93.20
2017-11-24T04:19:05.301Z,92.90
2017-11-24T04:21:36.111Z,92.80
2017-11-24T04:24:05.398Z,92.60
2017-11-24T04:26:36.261Z,92.50
2017-11-24T04:29:05.634Z,92.50
2017-11-24T04:34:05.096Z,92.60
2017-11-24T04:36:36.753Z,92.60
2017-11-24T04:39:04.414Z,92.60
2017-11-24T04:41:35.236Z,92.50
2017-11-24T04:44:03.472Z,92.50
2017-11-24T04:51:34.861Z,92.80
2017-11-24T04:54:03.496Z,92.80
2017-11-24T04:59:03.878Z,92.60
2017-11-24T05:01:31.773Z,92.30
2017-11-24T05:03:59.333Z,92.40
2017-11-24T05:06:26.836Z,92.40
2017-11-24T05:08:55.138Z,92.50
2017-11-24T05:11:22.749Z,92.50
2017-11-24T05:13:50.354Z,92.50
2017-11-24T05:16:17.887Z,92.40
2017-11-24T05:18:45.394Z,92.30
2017-11-24T05:21:12.887Z,92.20
2017-11-24T05:23:40.384Z,92.40
2017-11-24T05:26:08.145Z,92.60
2017-11-24T05:28:35.629Z,92.70
2017-11-24T05:31:03.267Z,92.80
2017-11-24T05:33:43.137Z,92.90
2017-11-24T05:36:17.456Z,92.70
2017-11-24T05:38:54.561Z,92.70
2017-11-24T05:42:03.424Z,92.90
2017-11-24T05:44:32.451Z,93.10
2017-11-24T05:47:00.106Z,93.30
2017-11-24T05:49:27.789Z,93.50
2017-11-24T05:51:55.582Z,93.60
2017-11-24T05:54:23.205Z,93.80
2017-11-24T05:56:50.852Z,93.70
2017-11-24T05:59:18.482Z,93.70
2017-11-24T06:04:42.583Z,93.80
2017-11-24T06:27:27.251Z,93.70
2017-11-24T06:29:55.471Z,94.00
2017-11-24T06:32:23.067Z,94.00
2017-11-24T06:34:51.343Z,94.60
2017-11-24T06:37:19.572Z,94.80
2017-11-24T06:39:47.532Z,94.80
2017-11-24T06:42:15.338Z,94.90
2017-11-24T06:44:42.824Z,95.10
2017-11-24T06:47:10.329Z,95.30
2017-11-24T06:49:37.816Z,95.40
2017-11-24T06:52:05.321Z,95.40
2017-11-24T06:54:33.141Z,95.50
2017-11-24T06:57:00.680Z,95.50
2017-11-24T06:59:28.867Z,95.50
2017-11-24T07:01:56.352Z,95.50
2017-11-24T07:04:23.903Z,95.50
2017-11-24T07:06:51.374Z,95.30
2017-11-24T07:09:19.038Z,95.30
2017-11-24T07:11:46.540Z,95.30
2017-11-24T07:14:14.007Z,95.30
2017-11-24T07:16:41.491Z,95.20
2017-11-24T07:19:09.107Z,95.30
2017-11-24T07:21:36.593Z,95.30
2017-11-24T07:24:04.093Z,95.50
2017-11-24T07:26:31.696Z,95.50
2017-11-24T07:29:03.144Z,95.80
2017-11-24T07:31:31.329Z,95.60
2017-11-24T07:33:58.831Z,95.70
2017-11-24T07:36:26.539Z,95.60
2017-11-24T07:38:54.269Z,95.50
2017-11-24T07:41:25.301Z,95.50
2017-11-24T07:43:53.002Z,95.50
2017-11-24T07:46:21.297Z,95.50
2017-11-24T07:48:49.765Z,95.60
2017-11-24T07:51:17.264Z,95.70
2017-11-24T07:53:45.501Z,95.70
2017-11-24T07:56:13.003Z,95.70
2017-11-24T07:58:40.476Z,95.60
2017-11-24T08:01:08.060Z,95.50
2017-11-24T08:03:35.566Z,95.60
2017-11-24T08:06:03.869Z,95.50
2017-11-24T08:08:31.361Z,95.50
2017-11-24T08:10:58.852Z,95.50
2017-11-24T08:13:26.363Z,95.40
2017-11-24T08:15:53.893Z,95.40
2017-11-24T08:18:21.427Z,95.40
2017-11-24T08:20:48.896Z,95.40
2017-11-24T08:23:16.409Z,95.40
2017-11-24T08:25:44.683Z,95.40
2017-11-24T08:28:12.202Z,95.40
2017-11-24T08:30:39.717Z,95.30
2017-11-24T08:33:07.183Z,95.50
2017-11-24T08:35:34.664Z,95.50
2017-11-24T08:38:03.284Z,95.30
2017-11-24T08:40:30.735Z,95.30
2017-11-24T08:42:58.213Z,95.30
2017-11-24T08:45:25.848Z,95.20
2017-11-24T08:47:59.721Z,95.20
2017-11-24T08:50:27.980Z,95.10
2017-11-24T08:52:55.452Z,95.10
2017-11-24T08:55:23.771Z,94.80
2017-11-24T08:57:51.267Z,94.80
2017-11-24T09:00:18.749Z,94.50
2017-11-24T09:02:46.228Z,94.40
2017-11-24T09:05:13.845Z,94.30
2017-11-24T09:07:41.553Z,94.30
2017-11-24T09:10:09.078Z,94.10
2017-11-24T09:12:37.363Z,94.20
2017-11-24T09:15:04.854Z,94.20
2017-11-24T09:17:32.648Z,94.10
2017-11-24T09:20:00.339Z,94.20
2017-11-24T09:22:28.748Z,93.60
2017-11-24T09:24:56.370Z,93.60
2017-11-24T09:27:24.049Z,93.60
2017-11-24T09:29:51.691Z,93.70
2017-11-24T09:34:55.730Z,93.40
2017-11-24T09:37:23.885Z,92.70
2017-11-24T09:42:24.693Z,92.80
2017-11-24T09:44:52.310Z,92.70
2017-11-24T09:49:51.523Z,93.00
2017-11-24T09:52:19.069Z,93.00
2017-11-24T09:54:46.535Z,93.00
2017-11-24T09:57:14.078Z,93.10
2017-11-24T09:59:41.676Z,92.90
2017-11-24T10:02:09.209Z,92.90
2017-11-24T10:04:36.699Z,93.00
2017-11-24T10:07:04.166Z,92.80
2017-11-24T10:09:31.724Z,92.90
2017-11-24T10:11:59.339Z,92.90
2017-11-24T10:14:26.850Z,92.50
2017-11-24T10:16:54.809Z,92.50
2017-11-24T10:19:22.327Z,92.40
2017-11-24T10:21:55.517Z,91.80
2017-11-24T10:24:23.085Z,91.80
2017-11-24T10:26:50.981Z,92.00
2017-11-24T10:29:18.482Z,92.00
2017-11-24T10:31:45.948Z,92.10
2017-11-24T10:34:14.019Z,92.20
2017-11-24T10:36:41.523Z,92.30
2017-11-24T10:39:09.072Z,91.70
2017-11-24T10:41:36.649Z,91.70
2017-11-24T10:44:04.270Z,91.60
2017-11-24T10:46:31.839Z,91.20
2017-11-24T10:48:59.353Z,90.60
2017-11-24T10:51:26.935Z,90.40
2017-11-24T10:53:54.417Z,90.80
2017-11-24T10:56:22.617Z,91.10
2017-11-24T10:58:50.473Z,91.20
2017-11-24T11:01:18.057Z,91.30
2017-11-24T11:03:45.643Z,91.20
2017-11-24T11:06:13.382Z,91.20
2017-11-24T11:08:40.912Z,91.40
2017-11-24T11:11:08.675Z,91.60
2017-11-24T11:13:36.310Z,91.30
2017-11-24T11:16:03.826Z,91.20
2017-11-24T11:18:31.452Z,91.30
2017-11-24T11:20:58.992Z,91.30
2017-11-24T11:23:28.710Z,91.30
2017-11-24T11:25:57.318Z,91.40
2017-11-24T11:28:24.869Z,91.40
2017-11-24T11:30:52.445Z,91.00
2017-11-24T11:33:20.094Z,91.20
2017-11-24T11:35:47.593Z,91.60
2017-11-24T11:38:15.129Z,91.40
2017-11-24T11:40:42.711Z,91.20
2017-11-24T11:43:10.245Z,90.20
2017-11-24T11:45:37.780Z,90.70
2017-11-24T11:48:05.436Z,90.50
2017-11-24T11:50:33.051Z,90.70
2017-11-24T11:53:00.571Z,90.50
2017-11-24T11:55:28.166Z,89.80
2017-11-24T11:57:55.645Z,89.80
2017-11-24T12:00:23.133Z,90.80
2017-11-24T12:02:50.866Z,90.70
2017-11-24T12:05:18.410Z,90.10
2017-11-24T12:07:45.943Z,90.10
2017-11-24T12:10:13.449Z,90.20
2017-11-24T12:12:41.083Z,90.00
2017-11-24T12:15:09.012Z,89.60
2017-11-24T12:17:36.485Z,88.80
2017-11-24T12:20:04.048Z,88.70
2017-11-24T12:22:31.617Z,88.00
2017-11-24T12:24:59.137Z,88.30
2017-11-24T12:27:26.672Z,89.90
2017-11-24T12:29:54.169Z,90.00
2017-11-24T12:32:21.910Z,88.70
2017-11-24T12:34:49.509Z,89.40
2017-11-24T12:37:17.121Z,90.20
2017-11-24T12:39:44.635Z,90.40
2017-11-24T12:42:12.537Z,90.10
2017-11-24T12:44:40.392Z,90.00
2017-11-24T12:47:08.038Z,90.20
2017-11-24T12:49:35.585Z,90.50
2017-11-24T12:52:03.264Z,90.50
2017-11-24T12:54:30.797Z,90.20
2017-11-24T12:56:58.297Z,90.50
2017-11-24T12:59:25.791Z,90.80
2017-11-24T13:01:53.464Z,90.90
2017-11-24T13:04:21.073Z,90.70
2017-11-24T13:06:48.570Z,90.80
2017-11-24T13:09:16.127Z,91.10
2017-11-24T13:11:44.455Z,91.00
2017-11-24T13:14:11.964Z,90.80
2017-11-24T13:16:39.651Z,90.70
2017-11-24T13:19:07.169Z,91.00
2017-11-24T13:21:34.702Z,90.90
2017-11-24T13:24:02.346Z,90.90
2017-11-24T13:26:29.867Z,91.10
2017-11-24T13:28:57.470Z,91.00
2017-11-24T13:31:25.009Z,90.80
2017-11-24T13:33:52.574Z,90.80
2017-11-24T13:36:20.082Z,90.80
2017-11-24T13:38:47.644Z,90.60
2017-11-24T13:41:15.174Z,90.80
2017-11-24T13:43:42.655Z,91.00
2017-11-24T13:46:17.887Z,90.90
2017-11-24T13:48:45.603Z,91.00
2017-11-24T13:51:14.663Z,91.20
2017-11-24T13:53:43.431Z,91.60
2017-11-24T13:56:11.186Z,91.50
2017-11-24T13:58:38.916Z,91.50
2017-11-24T14:01:06.461Z,91.80
2017-11-24T14:03:34.770Z,91.80
2017-11-24T14:06:13.836Z,92.00
2017-11-24T14:11:37.247Z,92.00
2017-11-24T14:17:15.340Z,91.90
2017-11-24T14:32:58.149Z,92.10
2017-11-24T14:35:25.676Z,92.20
2017-11-24T14:37:59.409Z,92.40
2017-11-24T14:40:28.622Z,92.00
2017-11-24T14:45:51.332Z,92.20
2017-11-24T14:48:29.262Z,92.20
2017-11-24T14:50:57.140Z,92.20
2017-11-24T14:53:24.983Z,92.50
2017-11-24T14:55:53.544Z,92.30
2017-11-24T15:01:24.332Z,92.60
2017-11-24T15:03:58.009Z,92.70
2017-11-24T15:09:25.229Z,92.90
2017-11-24T15:11:53.141Z,93.10
2017-11-24T15:14:22.085Z,93.20
2017-11-24T15:16:49.656Z,93.50
2017-11-24T15:19:17.187Z,93.70
2017-11-24T15:21:44.745Z,93.90
2017-11-24T15:29:46.454Z,94.20
2017-11-24T15:32:23.475Z,94.40
2017-11-24T15:34:51.680Z,94.50
2017-11-24T15:37:19.266Z,94.60
2017-11-24T15:39:46.828Z,94.60
2017-11-24T15:47:46.713Z,95.00
2017-11-24T15:50:16.183Z,95.00
2017-11-24T15:53:02.969Z,95.00
2017-11-24T15:55:36.385Z,95.00
2017-11-24T16:01:30.895Z,95.10
2017-11-24T16:03:58.606Z,95.10
2017-11-24T16:06:26.262Z,95.20
2017-11-24T16:08:54.645Z,95.20
2017-11-24T16:11:23.499Z,95.30
2017-11-24T16:13:56.433Z,95.30
2017-11-24T16:16:24.920Z,95.30
2017-11-24T16:18:53.570Z,95.10
2017-11-24T16:21:22.944Z,95.10
2017-11-24T16:23:50.669Z,95.00
2017-11-24T16:26:18.209Z,95.00
2017-11-24T16:28:48.781Z,95.00
2017-11-24T16:31:16.374Z,95.00
2017-11-24T16:33:48.685Z,95.20
2017-11-24T16:36:16.356Z,95.20
2017-11-24T16:38:44.109Z,95.20
2017-11-24T16:41:12.341Z,95.30
2017-11-24T16:47:11.293Z,95.30
2017-11-24T16:49:38.913Z,95.30
2017-11-24T16:52:06.463Z,95.60
2017-11-24T16:54:34.149Z,95.60
2017-11-24T16:57:07.608Z,95.40
2017-11-24T16:59:42.471Z,95.40
2017-11-24T17:02:10.189Z,95.40
2017-11-24T17:04:38.801Z,95.50
2017-11-24T17:07:07.242Z,95.60
2017-11-24T17:09:34.735Z,95.50
2017-11-24T17:12:02.684Z,95.60
2017-11-24T17:14:30.297Z,95.50
2017-11-24T17:17:00.004Z,95.50
2017-11-24T17:19:27.634Z,95.60
2017-11-24T17:21:55.241Z,95.60
2017-11-24T17:24:22.760Z,95.60
2017-11-24T17:26:51.051Z,95.70
2017-11-24T17:29:18.680Z,95.60
2017-11-24T17:31:48.041Z,95.60
2017-11-24T17:34:16.610Z,95.80
2017-11-24T17:36:51.916Z,95.90
2017-11-24T17:39:25.782Z,95.80
2017-11-24T17:41:53.375Z,95.70
2017-11-24T17:44:20.902Z,95.50
2017-11-24T17:46:49.293Z,95.60
2017-11-24T17:49:16.827Z,95.50
2017-11-24T17:51:45.573Z,95.50
2017-11-24T17:54:29.346Z,95.50
2017-11-24T17:56:58.064Z,95.40
2017-11-24T17:59:33.111Z,95.50
2017-11-24T18:02:21.680Z,95.50
2017-11-24T18:04:50.577Z,95.50
2017-11-24T18:07:18.997Z,95.50
2017-11-24T18:09:46.571Z,95.50
2017-11-24T18:15:12.661Z,95.80
2017-11-24T18:18:07.762Z,95.70
2017-11-24T18:20:48.703Z,95.70
2017-11-24T18:23:16.564Z,95.70
2017-11-24T18:26:11.956Z,96.00
2017-11-24T18:28:40.447Z,96.00
2017-11-24T18:31:08.082Z,96.10
2017-11-24T18:33:47.958Z,96.00
2017-11-24T18:36:19.688Z,96.00
2017-11-24T18:38:56.239Z,96.00
2017-11-24T18:41:30.021Z,96.00
2017-11-24T18:48:44.949Z,95.90
2017-11-24T18:51:23.975Z,96.00
2017-11-24T18:53:57.622Z,96.00
2017-11-24T18:56:37.891Z,96.10
2017-11-24T18:59:07.603Z,96.20
2017-11-24T19:01:38.474Z,96.30
2017-11-24T19:46:14.343Z,96.10
2017-11-24T19:48:45.075Z,95.80
2017-11-24T19:51:15.641Z,95.90
2017-11-24T19:53:44.435Z,95.90
2017-11-24T19:56:15.061Z,95.90
2017-11-24T19:58:44.613Z,96.10
2017-11-24T20:01:26.434Z,96.10
2017-11-24T20:06:35.375Z,96.20
2017-11-24T20:09:05.645Z,96.20
2017-11-24T20:11:46.925Z,96.20
2017-11-24T20:14:16.109Z,96.10
2017-11-24T20:16:43.718Z,96.10
2017-11-24T20:19:12.179Z,96.10
2017-11-24T20:21:39.751Z,96.10
2017-11-24T20:24:08.891Z,96.10
2017-11-24T20:29:25.254Z,96.10
2017-11-24T20:31:52.928Z,96.10
2017-11-24T20:34:21.432Z,96.30
2017-11-24T20:36:49.187Z,96.30
2017-11-24T20:39:17.763Z,96.30
2017-11-24T20:41:46.775Z,96.40
2017-11-24T20:44:14.726Z,96.30
2017-11-24T20:49:48.934Z,96.40
2017-11-24T20:52:27.369Z,96.50
2017-11-24T20:57:59.322Z,96.60
2017-11-24T21:00:37.497Z,96.60
2017-11-24T21:05:56.521Z,96.70
2017-11-24T21:08:26.173Z,96.60
2017-11-24T21:10:57.948Z,96.70
2017-11-24T21:13:48.942Z,96.70
2017-11-24T21:16:33.284Z,96.60
2017-11-24T21:19:02.305Z,96.50
2017-11-24T21:21:34.464Z,96.50
2017-11-24T21:26:37.568Z,96.60
2017-11-24T21:29:30.196Z,96.60
2017-11-24T21:32:08.406Z,96.60
2017-11-24T21:34:50.320Z,96.60
2017-11-24T21:37:18.410Z,96.70
2017-11-24T21:39:47.101Z,96.80
2017-11-24T21:42:14.840Z,96.70
2017-11-24T21:50:20.135Z,96.90
2017-11-24T21:52:49.205Z,96.80
2017-11-24T21:55:20.564Z,96.80
2017-11-24T22:00:30.850Z,96.80
2017-11-24T22:02:58.807Z,96.80
2017-11-24T22:05:26.784Z,96.60
2017-11-24T22:07:54.356Z,96.60
2017-11-24T22:10:22.157Z,96.60
